Time;durP1;ratioP1;P1;durP2;ratioP2;P2;SDS_P1;SDS_P2;PMS_P1;PMS_P2;Temp;Humidity;BMP_temperature;BMP_pressure;BME280_temperature;BME280_humidity;BME280_pressure;Samples;Min_cycle;Max_cycle;Signal;HPM_P1;HPM_P2
2022/10/26 00:02:07;;;;;;;;;;;;;;;;;;5100617;28;19920;-87
2022/10/26 00:04:32;;;;;;;;;;;;;;;;;;5100067;28;19992;-86
2022/10/26 00:06:58;;;;;;;;;;;;;;;;;;5100854;28;20347;-87
2022/10/26 00:09:23;;;;;;;;;;;;;;;;;;5101106;28;19920;-86
2022/10/26 00:11:48;;;;;;;;;;;;;;;;;;5101029;28;19916;-86
2022/10/26 00:14:14;;;;;;;;;;;;;;;;;;5101521;28;20022;-87
2022/10/26 00:16:39;;;;;;;;;;;;;;;;;;5099705;28;19999;-87
2022/10/26 00:19:05;;;;;;;;;;;;;;;;;;5101132;28;19916;-87
2022/10/26 00:21:30;;;;;;;;;;;;;;;;;;5100678;28;19916;-88
2022/10/26 00:23:57;;;;;;;;;;;;;;;;;;5101162;28;19916;-87
2022/10/26 00:26:23;;;;;;;;;;;;;;;;;;5101189;28;19979;-85
2022/10/26 00:28:48;;;;;;;;;;;;;;;;;;5100708;28;19950;-86
2022/10/26 00:31:17;;;;;;;;;;;;;;;;;;5098851;28;19984;-84
2022/10/26 00:33:42;;;;;;;;;;;;;;;;;;5099901;28;19958;-87
2022/10/26 00:36:08;;;;;;;;;;;;;;;;;;5100022;28;19916;-86
2022/10/26 00:38:34;;;;;;;;;;;;;;;;;;5100257;28;20329;-85
2022/10/26 00:40:59;;;;;;;;;;;;;;;;;;5098070;28;19947;-87
2022/10/26 00:43:25;;;;;;;;;;;;;;;;;;5099989;28;19956;-85
2022/10/26 00:45:51;;;;;;;;;;;;;;;;;;5098362;28;19959;-86
2022/10/26 00:48:23;;;;;;;;;;;;;;;;;;5100172;28;19923;-86
2022/10/26 00:50:48;;;;;;;;;;;;;;;;;;5098596;28;19920;-87
2022/10/26 00:53:14;;;;;;;;;;;;;;;;;;5097728;28;20430;-85
2022/10/26 00:55:43;;;;;;;;;;;;;;;;;;5097883;28;19916;-85
2022/10/26 00:58:09;;;;;;;;;;;;;;;;;;5095814;28;19916;-87
2022/10/26 01:00:35;;;;;;;;;;;;;;;;;;5094788;28;20298;-88
2022/10/26 01:03:03;;;;;;;;;;;;;;;;;;5094596;28;19958;-85
2022/10/26 01:05:29;;;;;;;;;;;;;;;;;;5095971;28;19920;-83
2022/10/26 01:07:55;;;;;;;;;;;;;;;;;;5094502;28;20053;-84
2022/10/26 01:10:21;;;;;;;;;;;;;;;;;;5095951;28;20362;-83
2022/10/26 01:12:46;;;;;;;;;;;;;;;;;;5095831;28;19923;-87
2022/10/26 01:15:12;;;;;;;;;;;;;;;;;;5094756;28;20292;-87
2022/10/26 01:17:44;;;;;;;;;;;;;;;;;;5096555;28;20375;-87
2022/10/26 01:20:28;;;;;;;;;;;;;;;;;;5096704;28;20326;-87
2022/10/26 01:22:53;;;;;;;;;;;;;;;;;;5096105;28;19951;-86
2022/10/26 01:25:37;;;;;;;;;;;;;;;;;;5095699;28;20020;-86
2022/10/26 01:28:07;;;;;;;;;;;;;;;;;;5095483;28;19917;-86
2022/10/26 01:30:37;;;;;;;;;;;;;;;;;;5095597;28;19924;-87
2022/10/26 01:33:15;;;;;;;;;;;;;;;;;;5095524;28;19963;-87
2022/10/26 01:35:50;;;;;;;;;;;;;;;;;;5096124;28;20364;-85
2022/10/26 01:38:25;;;;;;;;;;;;;;;;;;5098071;28;19916;-85
2022/10/26 01:40:58;;;;;;;;;;;;;;;;;;5096257;28;19920;-85
2022/10/26 01:43:24;;;;;;;;;;;;;;;;;;5094018;28;19916;-86
2022/10/26 01:45:51;;;;;;;;;;;;;;;;;;5095273;28;19916;-87
2022/10/26 01:48:19;;;;;;;;;;;;;;;;;;5094452;28;19920;-87
2022/10/26 01:50:46;;;;;;;;;;;;;;;;;;5095406;28;19955;-85
2022/10/26 01:53:15;;;;;;;;;;;;;;;;;;5093898;28;19917;-87
2022/10/26 01:55:43;;;;;;;;;;;;;;;;;;5095251;28;19999;-86
2022/10/26 01:58:20;;;;;;;;;;;;;;;;;;5093686;28;19962;-86
2022/10/26 02:00:51;;;;;;;;;;;;;;;;;;5095189;28;20011;-84
2022/10/26 02:03:30;;;;;;;;;;;;;;;;;;5093328;28;19920;-85
2022/10/26 02:06:14;;;;;;;;;;;;;;;;;;5094756;28;19916;-86
2022/10/26 02:08:39;;;;;;;;;;;;;;;;;;5094762;28;19922;-88
2022/10/26 02:11:04;;;;;;;;;;;;;;;;;;5093741;28;20011;-83
2022/10/26 02:13:39;;;;;;;;;;;;;;;;;;5094737;28;19916;-86
2022/10/26 02:16:14;;;;;;;;;;;;;;;;;;5094565;28;19966;-87
2022/10/26 02:18:49;;;;;;;;;;;;;;;;;;5093415;28;19916;-85
2022/10/26 02:21:17;;;;;;;;;;;;;;;;;;5093373;28;19963;-86
2022/10/26 02:23:44;;;;;;;;;;;;;;;;;;5094517;28;20011;-88
2022/10/26 02:26:12;;;;;;;;;;;;;;;;;;5094423;28;19923;-87
2022/10/26 02:28:40;;;;;;;;;;;;;;;;;;5093367;28;19912;-88
2022/10/26 02:31:06;;;;;;;;;;;;;;;;;;5094490;28;19962;-88
2022/10/26 02:33:34;;;;;;;;;;;;;;;;;;5094569;28;20328;-88
2022/10/26 02:36:01;;;;;;;;;;;;;;;;;;5094357;28;19999;-88
2022/10/26 02:38:29;;;;;;;;;;;;;;;;;;5094288;28;19923;-85
2022/10/26 02:40:55;;;;;;;;;;;;;;;;;;5094338;28;20057;-86
2022/10/26 02:43:22;;;;;;;;;;;;;;;;;;5094194;28;20295;-86
2022/10/26 02:45:53;;;;;;;;;;;;;;;;;;5094350;28;20402;-84
2022/10/26 02:48:19;;;;;;;;;;;;;;;;;;5094428;28;19916;-86
2022/10/26 02:50:44;;;;;;;;;;;;;;;;;;5092913;28;20043;-88
2022/10/26 02:53:29;;;;;;;;;;;;;;;;;;5095519;28;19916;-85
2022/10/26 02:55:56;;;;;;;;;;;;;;;;;;5085229;28;19924;-87
2022/10/26 02:58:23;;;;;;;;;;;;;;;;;;5096188;28;20375;-87
2022/10/26 03:00:50;;;;;;;;;;;;;;;;;;5097155;28;19993;-87
2022/10/26 03:03:16;;;;;;;;;;;;;;;;;;5096928;28;19963;-88
2022/10/26 03:05:42;;;;;;;;;;;;;;;;;;5108645;28;19924;-83
2022/10/26 03:08:08;;;;;;;;;;;;;;;;;;5102253;28;19926;-83
2022/10/26 03:10:37;;;;;;;;;;;;;;;;;;5103743;28;19951;-86
2022/10/26 03:13:02;;;;;;;;;;;;;;;;;;5102873;28;19916;-87
2022/10/26 03:15:27;;;;;;;;;;;;;;;;;;5094587;28;19923;-87
2022/10/26 03:17:53;;;;;;;;;;;;;;;;;;5093778;28;19916;-87
2022/10/26 03:20:18;;;;;;;;;;;;;;;;;;5088113;28;20371;-87
2022/10/26 03:22:45;;;;;;;;;;;;;;;;;;5072605;28;19921;-87
2022/10/26 03:25:11;;;;;;;;;;;;;;;;;;5073575;28;19923;-88
2022/10/26 03:27:36;;;;;;;;;;;;;;;;;;5073606;28;19916;-86
2022/10/26 03:30:02;;;;;;;;;;;;;;;;;;5072360;28;19923;-88
2022/10/26 03:32:28;;;;;;;;;;;;;;;;;;5073546;28;19948;-86
2022/10/26 03:34:53;;;;;;;;;;;;;;;;;;5073533;28;20365;-86
2022/10/26 03:37:18;;;;;;;;;;;;;;;;;;5073597;28;19916;-85
2022/10/26 03:39:44;;;;;;;;;;;;;;;;;;5074970;28;19920;-83
2022/10/26 03:42:10;;;;;;;;;;;;;;;;;;5073786;28;19917;-86
2022/10/26 03:44:35;;;;;;;;;;;;;;;;;;5073664;28;19917;-82
2022/10/26 03:47:00;;;;;;;;;;;;;;;;;;5088270;28;19920;-87
2022/10/26 03:49:26;;;;;;;;;;;;;;;;;;5092692;28;20412;-82
2022/10/26 03:51:51;;;;;;;;;;;;;;;;;;5092727;28;19923;-87
2022/10/26 03:54:17;;;;;;;;;;;;;;;;;;5093791;28;19964;-87
2022/10/26 03:56:42;;;;;;;;;;;;;;;;;;5093650;28;19920;-88
2022/10/26 03:59:08;;;;;;;;;;;;;;;;;;5093538;28;19916;-87
2022/10/26 04:01:33;;;;;;;;;;;;;;;;;;5093820;28;19959;-84
2022/10/26 04:03:58;;;;;;;;;;;;;;;;;;5089323;28;19920;-88
2022/10/26 04:06:25;;;;;;;;;;;;;;;;;;5098350;28;19946;-88
2022/10/26 04:08:52;;;;;;;;;;;;;;;;;;5084290;28;19916;-88
2022/10/26 04:11:17;;;;;;;;;;;;;;;;;;5077982;28;19923;-87
2022/10/26 04:13:43;;;;;;;;;;;;;;;;;;5080454;28;20015;-87
2022/10/26 04:16:08;;;;;;;;;;;;;;;;;;5080824;28;19917;-88
2022/10/26 04:18:34;;;;;;;;;;;;;;;;;;5092795;28;19920;-87
2022/10/26 04:21:02;;;;;;;;;;;;;;;;;;5097185;28;19916;-85
2022/10/26 04:23:27;;;;;;;;;;;;;;;;;;5101956;28;19941;-87
2022/10/26 04:25:53;;;;;;;;;;;;;;;;;;5101401;28;19917;-88
2022/10/26 04:28:18;;;;;;;;;;;;;;;;;;5094690;28;19923;-87
2022/10/26 04:30:44;;;;;;;;;;;;;;;;;;5080889;28;20005;-88
2022/10/26 04:33:09;;;;;;;;;;;;;;;;;;5081797;28;19931;-88
2022/10/26 04:35:35;;;;;;;;;;;;;;;;;;5076566;28;19924;-87
2022/10/26 04:38:02;;;;;;;;;;;;;;;;;;5076579;28;19952;-85
2022/10/26 04:40:28;;;;;;;;;;;;;;;;;;5075112;28;19916;-88
2022/10/26 04:42:53;;;;;;;;;;;;;;;;;;5108963;28;19916;-87
2022/10/26 04:45:19;;;;;;;;;;;;;;;;;;5076215;28;19924;-87
2022/10/26 04:47:45;;;;;;;;;;;;;;;;;;5109242;28;19966;-87
2022/10/26 04:50:11;;;;;;;;;;;;;;;;;;5080783;28;19962;-85
2022/10/26 04:52:37;;;;;;;;;;;;;;;;;;5104444;28;20352;-86
2022/10/26 04:55:04;;;;;;;;;;;;;;;;;;5083033;28;19924;-87
2022/10/26 04:57:30;;;;;;;;;;;;;;;;;;5081276;28;19927;-87
2022/10/26 04:59:56;;;;;;;;;;;;;;;;;;5080458;28;19917;-87
2022/10/26 05:02:21;;;;;;;;;;;;;;;;;;5080519;28;19962;-85
2022/10/26 05:04:47;;;;;;;;;;;;;;;;;;5078501;28;19971;-87
2022/10/26 05:07:12;;;;;;;;;;;;;;;;;;5094764;28;19916;-86
2022/10/26 05:09:37;;;;;;;;;;;;;;;;;;5087683;28;19928;-85
2022/10/26 05:12:03;;;;;;;;;;;;;;;;;;5093394;28;19955;-86
2022/10/26 05:14:28;;;;;;;;;;;;;;;;;;5089977;28;20011;-85
2022/10/26 05:16:54;;;;;;;;;;;;;;;;;;5094439;28;20294;-85
2022/10/26 05:19:20;;;;;;;;;;;;;;;;;;5089891;28;20394;-86
2022/10/26 05:21:45;;;;;;;;;;;;;;;;;;5079414;28;19942;-87
2022/10/26 05:24:11;;;;;;;;;;;;;;;;;;5094891;28;19964;-86
2022/10/26 05:26:36;;;;;;;;;;;;;;;;;;5089706;28;19981;-87
2022/10/26 05:29:02;;;;;;;;;;;;;;;;;;5084414;28;19958;-84
2022/10/26 05:31:27;;;;;;;;;;;;;;;;;;5084690;28;19927;-87
2022/10/26 05:33:52;;;;;;;;;;;;;;;;;;5081706;28;19928;-86
2022/10/26 05:36:18;;;;;;;;;;;;;;;;;;5084091;28;19935;-86
2022/10/26 05:38:43;;;;;;;;;;;;;;;;;;5087297;28;20015;-87
2022/10/26 05:41:09;;;;;;;;;;;;;;;;;;5084488;28;20283;-84
2022/10/26 05:43:34;;;;;;;;;;;;;;;;;;5078605;28;20373;-87
2022/10/26 05:45:59;;;;;;;;;;;;;;;;;;5073294;28;19924;-87
2022/10/26 05:48:25;;;;;;;;;;;;;;;;;;5072959;28;19921;-88
2022/10/26 05:50:50;;;;;;;;;;;;;;;;;;5073215;28;19970;-86
2022/10/26 05:53:16;;;;;;;;;;;;;;;;;;5073088;28;19916;-86
2022/10/26 05:55:42;;;;;;;;;;;;;;;;;;5073022;28;19917;-88
2022/10/26 05:58:10;;;;;;;;;;;;;;;;;;5073481;28;20314;-86
2022/10/26 06:00:37;;;;;;;;;;;;;;;;;;5073939;28;19916;-86
2022/10/26 06:03:11;;;;;;;;;;;;;;;;;;5074581;28;19936;-86
2022/10/26 06:05:49;;;;;;;;;;;;;;;;;;5074529;28;20360;-87
2022/10/26 06:08:15;;;;;;;;;;;;;;;;;;5074717;28;19927;-86
2022/10/26 06:10:40;;;;;;;;;;;;;;;;;;5074700;28;19920;-86
2022/10/26 06:13:06;;;;;;;;;;;;;;;;;;5074485;28;19916;-82
2022/10/26 06:15:36;;;;;;;;;;;;;;;;;;5074297;28;20039;-83
2022/10/26 06:18:06;;;;;;;;;;;;;;;;;;5074611;28;19916;-83
2022/10/26 06:20:38;;;;;;;;;;;;;;;;;;5074650;28;19917;-87
2022/10/26 06:23:13;;;;;;;;;;;;;;;;;;5074321;28;20046;-84
2022/10/26 06:25:51;;;;;;;;;;;;;;;;;;5074317;28;19916;-84
2022/10/26 06:28:19;;;;;;;;;;;;;;;;;;5074249;28;19917;-86
2022/10/26 06:30:45;;;;;;;;;;;;;;;;;;5074164;28;20395;-85
2022/10/26 06:33:11;;;;;;;;;;;;;;;;;;5072690;28;19916;-85
2022/10/26 06:35:40;;;;;;;;;;;;;;;;;;5073920;28;20046;-86
2022/10/26 06:38:17;;;;;;;;;;;;;;;;;;5106643;28;19920;-85
2022/10/26 06:40:45;;;;;;;;;;;;;;;;;;5074218;28;20014;-85
2022/10/26 06:43:23;;;;;;;;;;;;;;;;;;5073845;28;19970;-84
2022/10/26 06:45:52;;;;;;;;;;;;;;;;;;5074027;28;19962;-84
2022/10/26 06:48:20;;;;;;;;;;;;;;;;;;5073930;28;19962;-85
2022/10/26 06:50:54;;;;;;;;;;;;;;;;;;5073941;28;19917;-86
2022/10/26 06:53:27;;;;;;;;;;;;;;;;;;5072632;28;20367;-86
2022/10/26 06:55:52;;;;;;;;;;;;;;;;;;5074400;28;20011;-86
2022/10/26 06:58:19;;;;;;;;;;;;;;;;;;5073915;28;19998;-87
2022/10/26 07:00:45;;;;;;;;;;;;;;;;;;5073992;28;19954;-85
2022/10/26 07:03:11;;;;;;;;;;;;;;;;;;5106331;28;19970;-85
2022/10/26 07:05:36;;;;;;;;;;;;;;;;;;5072552;28;19920;-87
2022/10/26 07:08:02;;;;;;;;;;;;;;;;;;5093329;28;19931;-85
2022/10/26 07:10:27;;;;;;;;;;;;;;;;;;5111897;28;19905;-84
2022/10/26 07:12:52;;;;;;;;;;;;;;;;;;5115764;28;19917;-84
2022/10/26 07:15:18;;;;;;;;;;;;;;;;;;5106424;28;19920;-87
2022/10/26 07:17:47;;;;;;;;;;;;;;;;;;5096071;28;20402;-86
2022/10/26 07:20:13;;;;;;;;;;;;;;;;;;5093100;28;19923;-86
2022/10/26 07:22:39;;;;;;;;;;;;;;;;;;5093872;28;20260;-87
2022/10/26 07:25:05;;;;;;;;;;;;;;;;;;5093740;28;19924;-86
2022/10/26 07:27:31;;;;;;;;;;;;;;;;;;5093796;28;19997;-87
2022/10/26 07:29:56;;;;;;;;;;;;;;;;;;5093789;28;19917;-84
2022/10/26 07:32:22;;;;;;;;;;;;;;;;;;5092409;28;19922;-87
2022/10/26 07:34:47;;;;;;;;;;;;;;;;;;5093714;28;19916;-86
2022/10/26 07:37:13;;;;;;;;;;;;;;;;;;5093633;28;19923;-87
2022/10/26 07:39:38;;;;;;;;;;;;;;;;;;5093829;28;20379;-86
2022/10/26 07:42:04;;;;;;;;;;;;;;;;;;5093642;28;20379;-87
2022/10/26 07:44:29;;;;;;;;;;;;;;;;;;5093578;28;19920;-87
2022/10/26 07:46:54;;;;;;;;;;;;;;;;;;5096075;28;20006;-85
2022/10/26 07:49:20;;;;;;;;;;;;;;;;;;5096502;28;19916;-86
2022/10/26 07:51:45;;;;;;;;;;;;;;;;;;5097569;28;20014;-86
2022/10/26 07:54:11;;;;;;;;;;;;;;;;;;5097543;28;19916;-87
2022/10/26 07:56:36;;;;;;;;;;;;;;;;;;5097487;28;19978;-86
2022/10/26 07:59:02;;;;;;;;;;;;;;;;;;5097294;28;19916;-86
2022/10/26 08:01:27;;;;;;;;;;;;;;;;;;5097243;28;20337;-85
2022/10/26 08:03:53;;;;;;;;;;;;;;;;;;5097178;28;19920;-87
2022/10/26 08:06:19;;;;;;;;;;;;;;;;;;5095919;28;19922;-86
2022/10/26 08:08:46;;;;;;;;;;;;;;;;;;5097214;28;20390;-86
2022/10/26 08:11:11;;;;;;;;;;;;;;;;;;5097055;28;19917;-86
2022/10/26 08:13:36;;;;;;;;;;;;;;;;;;5097116;28;19985;-87
2022/10/26 08:16:03;;;;;;;;;;;;;;;;;;5097019;28;20436;-87
2022/10/26 08:18:28;;;;;;;;;;;;;;;;;;5096606;28;20329;-86
2022/10/26 08:20:54;;;;;;;;;;;;;;;;;;5096422;28;19923;-85
2022/10/26 08:23:19;;;;;;;;;;;;;;;;;;5096719;28;20066;-86
2022/10/26 08:25:45;;;;;;;;;;;;;;;;;;5095501;28;19920;-86
2022/10/26 08:28:10;;;;;;;;;;;;;;;;;;5096716;28;19995;-87
2022/10/26 08:30:36;;;;;;;;;;;;;;;;;;5096774;28;20011;-85
2022/10/26 08:33:02;;;;;;;;;;;;;;;;;;5096593;28;19970;-86
2022/10/26 08:35:28;;;;;;;;;;;;;;;;;;5096712;28;19971;-87
2022/10/26 08:37:54;;;;;;;;;;;;;;;;;;5096627;28;19923;-84
2022/10/26 08:40:39;;;;;;;;;;;;;;;;;;5096635;28;19938;-85
2022/10/26 08:43:14;;;;;;;;;;;;;;;;;;5095917;28;19991;-86
2022/10/26 08:45:52;;;;;;;;;;;;;;;;;;5095328;28;19919;-85
2022/10/26 08:48:20;;;;;;;;;;;;;;;;;;5096355;28;19923;-86
2022/10/26 08:50:59;;;;;;;;;;;;;;;;;;5096395;28;19916;-87
2022/10/26 08:53:37;;;;;;;;;;;;;;;;;;5096291;28;19924;-87
2022/10/26 08:56:02;;;;;;;;;;;;;;;;;;5096309;28;19967;-86
2022/10/26 08:58:31;;;;;;;;;;;;;;;;;;5095788;28;19984;-85
2022/10/26 09:00:57;;;;;;;;;;;;;;;;;;5096014;28;19916;-85
2022/10/26 09:03:23;;;;;;;;;;;;;;;;;;5096048;28;19924;-84
2022/10/26 09:06:07;;;;;;;;;;;;;;;;;;5095479;28;19923;-86
2022/10/26 09:08:34;;;;;;;;;;;;;;;;;;5095893;28;19924;-85
2022/10/26 09:11:28;;;;;;;;;;;;;;;;;;5096039;28;19923;-87
2022/10/26 09:14:12;;;;;;;;;;;;;;;;;;5036925;28;19917;-85
2022/10/26 09:16:37;;;;;;;;;;;;;;;;;;5053662;28;20269;-85
2022/10/26 09:19:18;;;;;;;;;;;;;;;;;;5053625;28;19924;-86
2022/10/26 09:22:01;;;;;;;;;;;;;;;;;;5053509;28;19924;-87
2022/10/26 09:24:31;;;;;;;;;;;;;;;;;;5053618;28;19940;-86
2022/10/26 09:27:13;;;;;;;;;;;;;;;;;;5053138;28;20380;-86
2022/10/26 09:29:40;;;;;;;;;;;;;;;;;;5053423;28;20391;-86
2022/10/26 09:32:09;;;;;;;;;;;;;;;;;;5053453;28;19960;-85
2022/10/26 09:34:44;;;;;;;;;;;;;;;;;;5053180;28;19967;-83
2022/10/26 09:37:15;;;;;;;;;;;;;;;;;;5053099;28;19948;-86
2022/10/26 09:39:54;;;;;;;;;;;;;;;;;;5053197;28;19917;-85
2022/10/26 09:42:55;;;;;;;;;;;;;;;;;;5036359;28;20075;-83
2022/10/26 09:45:27;;;;;;;;;;;;;;;;;;4993820;28;19918;-85
2022/10/26 09:47:53;;;;;;;;;;;;;;;;;;4993673;28;19964;-84
2022/10/26 09:50:22;;;;;;;;;;;;;;;;;;5024079;28;20326;-84
2022/10/26 09:52:47;;;;;;;;;;;;;;;;;;5052886;28;19917;-87
2022/10/26 09:55:12;;;;;;;;;;;;;;;;;;5052816;28;19917;-86
2022/10/26 09:57:42;;;;;;;;;;;;;;;;;;5052774;28;20313;-83
2022/10/26 10:00:11;;;;;;;;;;;;;;;;;;5035990;28;19916;-86
2022/10/26 10:02:38;;;;;;;;;;;;;;;;;;5052665;28;20011;-85
2022/10/26 10:05:27;;;;;;;;;;;;;;;;;;5052295;28;20007;-85
2022/10/26 10:08:11;;;;;;;;;;;;;;;;;;5041806;28;19956;-86
2022/10/26 10:10:37;;;;;;;;;;;;;;;;;;5052380;28;19917;-87
2022/10/26 10:13:14;;;;;;;;;;;;;;;;;;5052471;28;20059;-86
2022/10/26 10:15:39;;;;;;;;;;;;;;;;;;5052550;28;19923;-86
2022/10/26 10:18:04;;;;;;;;;;;;;;;;;;5052401;28;19920;-84
2022/10/26 10:20:31;;;;;;;;;;;;;;;;;;5094812;28;20024;-87
2022/10/26 10:23:00;;;;;;;;;;;;;;;;;;5094609;28;20359;-87
2022/10/26 10:25:38;;;;;;;;;;;;;;;;;;5093245;28;19916;-84
2022/10/26 10:28:24;;;;;;;;;;;;;;;;;;5093099;28;19916;-85
2022/10/26 10:30:54;;;;;;;;;;;;;;;;;;5093263;28;19919;-87
2022/10/26 10:33:19;;;;;;;;;;;;;;;;;;5094507;28;20256;-88
2022/10/26 10:35:49;;;;;;;;;;;;;;;;;;5094438;28;19973;-87
2022/10/26 10:38:16;;;;;;;;;;;;;;;;;;5094453;28;19920;-85
2022/10/26 10:40:48;;;;;;;;;;;;;;;;;;5094378;28;19920;-87
2022/10/26 10:43:14;;;;;;;;;;;;;;;;;;5094270;28;19923;-87
2022/10/26 10:45:40;;;;;;;;;;;;;;;;;;5092976;28;19920;-87
2022/10/26 10:48:11;;;;;;;;;;;;;;;;;;5092868;28;20322;-86
2022/10/26 10:50:37;;;;;;;;;;;;;;;;;;5092971;28;19962;-86
2022/10/26 10:53:12;;;;;;;;;;;;;;;;;;5093088;28;19916;-87
2022/10/26 10:55:37;;;;;;;;;;;;;;;;;;5094292;28;19923;-85
2022/10/26 10:58:10;;;;;;;;;;;;;;;;;;5104957;28;19919;-85
2022/10/26 11:00:36;;;;;;;;;;;;;;;;;;5095890;28;19991;-85
2022/10/26 11:03:21;;;;;;;;;;;;;;;;;;5107433;28;19955;-87
2022/10/26 11:05:54;;;;;;;;;;;;;;;;;;5141071;27;19928;-87
2022/10/26 11:08:28;;;;;;;;;;;;;;;;;;5097462;28;19920;-86
2022/10/26 11:10:59;;;;;;;;;;;;;;;;;;5095396;28;19916;-87
2022/10/26 11:13:34;;;;;;;;;;;;;;;;;;5093935;28;19961;-86
2022/10/26 11:16:02;;;;;;;;;;;;;;;;;;5093832;28;19994;-88
2022/10/26 11:18:33;;;;;;;;;;;;;;;;;;5093870;28;19916;-85
2022/10/26 11:21:05;;;;;;;;;;;;;;;;;;5096722;28;19917;-85
2022/10/26 11:23:37;;;;;;;;;;;;;;;;;;5097946;28;19916;-85
2022/10/26 11:26:06;;;;;;;;;;;;;;;;;;5098034;28;19923;-87
2022/10/26 11:28:39;;;;;;;;;;;;;;;;;;5097794;28;19923;-86
2022/10/26 11:31:08;;;;;;;;;;;;;;;;;;5098131;28;20295;-85
2022/10/26 11:33:41;;;;;;;;;;;;;;;;;;5098185;28;20347;-87
2022/10/26 11:36:08;;;;;;;;;;;;;;;;;;5097778;28;19927;-86
2022/10/26 11:38:37;;;;;;;;;;;;;;;;;;5096455;28;19919;-88
2022/10/26 11:41:05;;;;;;;;;;;;;;;;;;5097584;28;19917;-86
2022/10/26 11:43:34;;;;;;;;;;;;;;;;;;5096321;28;19930;-87
2022/10/26 11:46:02;;;;;;;;;;;;;;;;;;5097498;28;19916;-87
2022/10/26 11:48:32;;;;;;;;;;;;;;;;;;5097493;28;19916;-84
2022/10/26 11:50:58;;;;;;;;;;;;;;;;;;5097532;28;20295;-86
2022/10/26 11:53:25;;;;;;;;;;;;;;;;;;5097415;28;19920;-86
2022/10/26 11:55:53;;;;;;;;;;;;;;;;;;5096100;28;20020;-88
2022/10/26 11:58:21;;;;;;;;;;;;;;;;;;5096066;28;20287;-88
2022/10/26 12:00:50;;;;;;;;;;;;;;;;;;5097305;28;19998;-88
2022/10/26 12:03:24;;;;;;;;;;;;;;;;;;5097056;28;19926;-87
2022/10/26 12:05:53;;;;;;;;;;;;;;;;;;5095943;28;19939;-86
2022/10/26 12:08:30;;;;;;;;;;;;;;;;;;5096973;28;19916;-88
2022/10/26 12:11:08;;;;;;;;;;;;;;;;;;5097220;28;19955;-87
2022/10/26 12:13:37;;;;;;;;;;;;;;;;;;5097215;28;19920;-85
2022/10/26 12:16:29;;;;;;;;;;;;;;;;;;5097333;28;19916;-86
2022/10/26 12:18:59;;;;;;;;;;;;;;;;;;5097092;28;20027;-86
2022/10/26 12:21:29;;;;;;;;;;;;;;;;;;5096964;28;19920;-85
2022/10/26 12:23:57;;;;;;;;;;;;;;;;;;5096783;28;19961;-85
2022/10/26 12:26:23;;;;;;;;;;;;;;;;;;5096950;28;19920;-85
2022/10/26 12:29:08;;;;;;;;;;;;;;;;;;5096666;28;19942;-87
2022/10/26 12:31:36;;;;;;;;;;;;;;;;;;5095904;28;20011;-85
2022/10/26 12:34:10;;;;;;;;;;;;;;;;;;5096657;28;19916;-85
2022/10/26 12:36:48;;;;;;;;;;;;;;;;;;5096704;28;19920;-85
2022/10/26 13:31:01;;;;;;;;;;;;;;;;;;5080230;28;20377;-84
2022/10/26 13:33:30;;;;;;;;;;;;;;;;;;5095654;28;19924;-84
2022/10/26 13:35:57;;;;;;;;;;;;;;;;;;5095603;28;20049;-84
2022/10/26 13:38:24;;;;;;;;;;;;;;;;;;5094313;28;19916;-83
2022/10/26 13:40:52;;;;;;;;;;;;;;;;;;5095534;28;19916;-85
2022/10/26 13:43:21;;;;;;;;;;;;;;;;;;5094470;28;19922;-88
2022/10/26 13:46:13;;;;;;;;;;;;;;;;;;5098271;28;19920;-88
2022/10/26 13:48:39;;;;;;;;;;;;;;;;;;5093302;28;20014;-84
2022/10/26 13:51:22;;;;;;;;;;;;;;;;;;5095427;28;19979;-87
2022/10/26 13:53:48;;;;;;;;;;;;;;;;;;5095458;28;19916;-85
2022/10/26 13:56:32;;;;;;;;;;;;;;;;;;5096126;28;20002;-88
2022/10/26 13:59:00;;;;;;;;;;;;;;;;;;5095704;28;19923;-88
2022/10/26 14:01:27;;;;;;;;;;;;;;;;;;5095167;28;19951;-88
2022/10/26 14:03:53;;;;;;;;;;;;;;;;;;5095183;28;19938;-83
2022/10/26 14:06:18;;;;;;;;;;;;;;;;;;5086076;28;19916;-84
2022/10/26 14:08:46;;;;;;;;;;;;;;;;;;5082116;28;19927;-86
2022/10/26 14:11:13;;;;;;;;;;;;;;;;;;5081535;28;19924;-87
2022/10/26 14:13:39;;;;;;;;;;;;;;;;;;5079360;28;20442;-87
2022/10/26 14:16:06;;;;;;;;;;;;;;;;;;5078425;28;19921;-86
2022/10/26 14:18:32;;;;;;;;;;;;;;;;;;5086254;28;19920;-88
2022/10/26 14:21:03;;;;;;;;;;;;;;;;;;5076023;28;19916;-86
2022/10/26 14:23:55;;;;;;;;;;;;;;;;;;5077490;28;19963;-87
2022/10/26 14:26:23;;;;;;;;;;;;;;;;;;5080848;28;20358;-87
2022/10/26 14:28:50;;;;;;;;;;;;;;;;;;5074409;28;19923;-85
2022/10/26 14:31:23;;;;;;;;;;;;;;;;;;5075067;28;19932;-86
2022/10/26 14:33:49;;;;;;;;;;;;;;;;;;5083477;28;19920;-85
2022/10/26 14:36:15;;;;;;;;;;;;;;;;;;5078631;28;19916;-84
2022/10/26 14:38:45;;;;;;;;;;;;;;;;;;5074659;28;20003;-86
2022/10/26 14:41:12;;;;;;;;;;;;;;;;;;5112125;27;20205;-86
2022/10/26 14:43:38;;;;;;;;;;;;;;;;;;5081509;28;20029;-87
2022/10/26 14:46:03;;;;;;;;;;;;;;;;;;5091831;28;20017;-86
2022/10/26 14:48:32;;;;;;;;;;;;;;;;;;5086067;28;19920;-84
2022/10/26 14:51:03;;;;;;;;;;;;;;;;;;5081316;28;20436;-87
2022/10/26 14:53:36;;;;;;;;;;;;;;;;;;5084688;28;20292;-83
2022/10/26 14:56:02;;;;;;;;;;;;;;;;;;5104585;28;19931;-84
2022/10/26 14:58:32;;;;;;;;;;;;;;;;;;5103917;28;19928;-86
2022/10/26 15:01:16;;;;;;;;;;;;;;;;;;5083478;28;19980;-89
2022/10/26 15:03:43;;;;;;;;;;;;;;;;;;5079685;28;20325;-83
2022/10/26 15:06:29;;;;;;;;;;;;;;;;;;5082272;28;20086;-88
2022/10/26 15:08:55;;;;;;;;;;;;;;;;;;5078792;28;20025;-87
2022/10/26 15:11:20;;;;;;;;;;;;;;;;;;5077572;28;19935;-88
2022/10/26 15:13:46;;;;;;;;;;;;;;;;;;5077650;28;19924;-86
2022/10/26 15:16:19;;;;;;;;;;;;;;;;;;5079605;28;20349;-84
2022/10/26 15:18:45;;;;;;;;;;;;;;;;;;5079340;28;19928;-86
2022/10/26 15:21:31;;;;;;;;;;;;;;;;;;5081766;28;20421;-87
2022/10/26 15:23:56;;;;;;;;;;;;;;;;;;5092522;28;19920;-84
2022/10/26 15:26:22;;;;;;;;;;;;;;;;;;5077607;28;20353;-87
2022/10/26 15:28:48;;;;;;;;;;;;;;;;;;5081029;28;19921;-87
2022/10/26 15:31:14;;;;;;;;;;;;;;;;;;5084238;28;20371;-86
2022/10/26 15:34:02;;;;;;;;;;;;;;;;;;5083011;28;19951;-86
2022/10/26 15:36:28;;;;;;;;;;;;;;;;;;5077221;28;20330;-87
2022/10/26 15:38:54;;;;;;;;;;;;;;;;;;5080965;28;19966;-89
2022/10/26 15:41:23;;;;;;;;;;;;;;;;;;5077671;28;20058;-86
2022/10/26 15:43:49;;;;;;;;;;;;;;;;;;5081161;28;19973;-86
2022/10/26 15:46:14;;;;;;;;;;;;;;;;;;5078452;28;19929;-88
2022/10/26 15:48:40;;;;;;;;;;;;;;;;;;5081362;28;20390;-86
2022/10/26 15:51:06;;;;;;;;;;;;;;;;;;5080135;28;20429;-88
2022/10/26 15:53:32;;;;;;;;;;;;;;;;;;5079412;28;20338;-88
2022/10/26 15:55:58;;;;;;;;;;;;;;;;;;5079492;28;19916;-89
2022/10/26 15:58:24;;;;;;;;;;;;;;;;;;5081803;28;20315;-88
2022/10/26 16:00:49;;;;;;;;;;;;;;;;;;5078761;28;19921;-89
2022/10/26 16:03:17;;;;;;;;;;;;;;;;;;5079500;28;19924;-87
2022/10/26 16:05:42;;;;;;;;;;;;;;;;;;5077549;28;19960;-86
2022/10/26 16:08:11;;;;;;;;;;;;;;;;;;5082107;28;19959;-86
2022/10/26 16:10:36;;;;;;;;;;;;;;;;;;5081891;28;19957;-87
2022/10/26 16:13:02;;;;;;;;;;;;;;;;;;5082010;28;20066;-87
2022/10/26 16:15:27;;;;;;;;;;;;;;;;;;5081926;28;19920;-88
2022/10/26 16:17:53;;;;;;;;;;;;;;;;;;5082009;28;19924;-88
2022/10/26 16:20:23;;;;;;;;;;;;;;;;;;5084709;28;19920;-89
2022/10/26 16:22:50;;;;;;;;;;;;;;;;;;5088487;28;19920;-86
2022/10/26 16:25:16;;;;;;;;;;;;;;;;;;5090344;28;20016;-85
2022/10/26 16:27:42;;;;;;;;;;;;;;;;;;5085897;28;20077;-87
2022/10/26 16:30:08;;;;;;;;;;;;;;;;;;5081078;28;20379;-86
2022/10/26 16:32:33;;;;;;;;;;;;;;;;;;5088176;28;19921;-86
2022/10/26 16:34:58;;;;;;;;;;;;;;;;;;5091250;28;19925;-88
2022/10/26 16:37:24;;;;;;;;;;;;;;;;;;5089017;28;19921;-85
2022/10/26 16:39:49;;;;;;;;;;;;;;;;;;5080253;28;19917;-88
2022/10/26 16:42:15;;;;;;;;;;;;;;;;;;5076845;28;20292;-88
2022/10/26 16:44:40;;;;;;;;;;;;;;;;;;5076783;28;20364;-83
2022/10/26 16:47:06;;;;;;;;;;;;;;;;;;5089501;28;19923;-85
2022/10/26 16:49:31;;;;;;;;;;;;;;;;;;5080784;28;19920;-85
2022/10/26 16:51:56;;;;;;;;;;;;;;;;;;5114423;28;19917;-86
2022/10/26 16:54:22;;;;;;;;;;;;;;;;;;5101541;28;20359;-84
2022/10/26 16:56:47;;;;;;;;;;;;;;;;;;5097414;28;19982;-84
2022/10/26 16:59:13;;;;;;;;;;;;;;;;;;5098487;28;19920;-83
2022/10/26 17:01:38;;;;;;;;;;;;;;;;;;5103337;28;19930;-84
2022/10/26 17:04:04;;;;;;;;;;;;;;;;;;5107809;28;19920;-84
2022/10/26 17:06:32;;;;;;;;;;;;;;;;;;5097309;28;19962;-85
2022/10/26 17:08:58;;;;;;;;;;;;;;;;;;5099902;28;20403;-86
2022/10/26 17:11:23;;;;;;;;;;;;;;;;;;5099490;28;20001;-86
2022/10/26 17:13:52;;;;;;;;;;;;;;;;;;5100207;28;19917;-85
2022/10/26 17:16:18;;;;;;;;;;;;;;;;;;5099909;28;20385;-85
2022/10/26 17:18:46;;;;;;;;;;;;;;;;;;5100312;28;20006;-86
2022/10/26 17:21:11;;;;;;;;;;;;;;;;;;5099603;28;20264;-88
2022/10/26 17:23:37;;;;;;;;;;;;;;;;;;5100207;28;19920;-84
2022/10/26 17:26:04;;;;;;;;;;;;;;;;;;5097227;28;19916;-86
2022/10/26 17:28:30;;;;;;;;;;;;;;;;;;5100811;28;19917;-86
2022/10/26 17:31:03;;;;;;;;;;;;;;;;;;5098818;28;19924;-88
2022/10/26 17:33:30;;;;;;;;;;;;;;;;;;5093041;28;19923;-85
2022/10/26 17:35:55;;;;;;;;;;;;;;;;;;5101041;28;19920;-84
2022/10/26 17:38:21;;;;;;;;;;;;;;;;;;5094492;28;20394;-87
2022/10/26 17:40:46;;;;;;;;;;;;;;;;;;5091233;28;19922;-87
2022/10/26 17:43:11;;;;;;;;;;;;;;;;;;5102407;28;20006;-84
2022/10/26 17:45:37;;;;;;;;;;;;;;;;;;5102220;28;19963;-86
2022/10/26 17:48:02;;;;;;;;;;;;;;;;;;5097840;28;20019;-86